Fairbanks, AK

9:28 PM AKDT on September 23, 2014 (GMT -0800)
AKDOT 14th Avenue @ Eielson Street | Change Station
CLOSE
Current Station
Personal Weather Station
Location: Fairbanks, AK
Elevation: 482 ft
Nearby Weather Stations

Elev 482 ft 64.84 °N, 147.71 °W | Updated 36 minutes ago

Partly Cloudy
Partly Cloudy
35 °F
Feels Like 35 °F
N
0
Wind Variable Wind from North
Gusts 1.0 mph

Today
High -- | Low -- °F
--% Chance of Precip.
Yesterday
High -- | Low -- °F
Precip. -- in
7:37 AM 7:47 PM
Waning Crescent, 0% visible
Pressure 29.93 in
Visibility 25.0 miles
Clouds Few 10000 ft
Windchill 35 °F
Dew Point 32 °F
Humidity 90%
Rainfall -999.00 in
Snow Depth 2 in , 0 in , 0 in
UV 0 out of 12
Pollen Not available.
Air Quality Not available.
Flu Activity Not available.
METAR PAFB 240455Z 31006KT 25SM FEW100 03/M01 A2991 RMK SLP135

More Conditions Fewer Conditions

Pressure 29.93 in
Visibility 25.0 miles
Clouds Few 10000 ft
Windchill 35 °F
Dew Point 32 °F
Humidity 90%
Rainfall -999.00 in
Snow Depth 2 in , 0 in , 0 in
UV 0 out of 12
Pollen Not available.
Air Quality Not available.
Flu Activity Not available.
METAR PAFB 240455Z 31006KT 25SM FEW100 03/M01 A2991 RMK SLP135

More Conditions Fewer Conditions

10-Day Weather Forecast

Almanac

Astronomy

Sep. 23, 2014 Rise Set
Actual Time 7:37 AM AKDT 7:47 PM AKDT
Civil Twilight 6:48 AM AKDT 8:36 PM AKDT
Nautical Twilight 5:47 AM AKDT 9:35 PM AKDT
Astronomical Twilight 4:38 AM AKDT 10:43 PM AKDT
Moon 7:10 AM AKDT (9/23) 7:21 PM AKDT (9/23)
Length of Visible Light 13h 48m
Length of Day
12h 10m
Tomorrow will be 6m 37s shorter.
Waning Crescent, 0% of the Moon is Illuminated
Sep 24
Waning Crescent
Sep 24
New
Oct 1
First Quarter
Oct 8
Full
Oct 15
Last Quarter

Yesterday's Extremes

State Highs State Lows

Community

WunderPhotos

Upload Photos

1,755,891 photos uploaded!

WunderBlogs® & News

Nearby

Snow Depth

Station Depth Elevation
Munson Ridge 2 in 3100 ft
MF Bradley River 0 in 2300 ft
Upper Tsaina River 0 in 1750 ft
Coldfoot 2 in 1040 ft
Point Mackenzie 1 in 200 ft

Earthquake Activity

City Distance Mag. Time & Date
No recent earthquake activity has been reported nearby.
Minimum magnitude displayed is 2.5.

Coastal Water Temperatures

Place Temperature
No Stations Reporting

Nearby Weather Stations